West Acres, Indiana
Current Conditions -  °F | °C
As of 2:53 PM on Monday 22 Dec 2014 (Local Time) from KMIE Reporting Station
Few Clouds Few Clouds  
Wind Chill: 37°   Ceiling: Unl
Heat Index: 43°   Visibility: 9mi
Dew Point: 36°   Wind: 10mph
Humidity: 76%   Direction: 130°SE
Pressure: 29.82"   Gusts: NA
Location:  40.2341°N, 85.4639°W
Report Text: KMIE 221953Z 13009KT 9SM FEW080 FEW120 06/02 A2982 RMK AO2 SLP101 T00610022
Loading
Personal Weather Stations






























Interactive Weather Map New forecast layout! Learn more

10-Day Weather Forecast

Advertisements
Track Severe Weather on mobile